createdAt,value
2022-09-21T00:01:12.750Z,101596.16
2022-09-21T00:03:43.286Z,101597.41
2022-09-21T00:06:16.225Z,101591.81
2022-09-21T00:08:43.440Z,101598.50
2022-09-21T00:11:14.923Z,101595.50
2022-09-21T00:13:42.253Z,101598.66
2022-09-21T00:16:09.587Z,101598.34
2022-09-21T00:18:36.886Z,101600.34
2022-09-21T00:21:12.028Z,101605.75
2022-09-21T00:23:39.332Z,101603.19
2022-09-21T00:26:09.831Z,101595.84
2022-09-21T00:28:36.515Z,101607.47
2022-09-21T00:31:05.119Z,101605.19
2022-09-21T00:33:32.180Z,101603.22
2022-09-21T00:36:04.510Z,101608.47
2022-09-21T00:38:31.453Z,101612.00
2022-09-21T00:40:58.507Z,101607.72
2022-09-21T00:43:25.174Z,101612.41
2022-09-21T00:46:01.671Z,101616.25
2022-09-21T00:48:29.671Z,101606.63
2022-09-21T00:50:58.676Z,101611.28
2022-09-21T00:53:25.308Z,101611.56
2022-09-21T00:55:56.204Z,101613.44
2022-09-21T00:58:30.359Z,101610.75
2022-09-21T01:00:59.720Z,101617.44
2022-09-21T01:03:28.079Z,101622.25
2022-09-21T01:05:56.611Z,101623.91
2022-09-21T01:08:26.049Z,101620.97
2022-09-21T01:11:30.602Z,101620.31
2022-09-21T01:14:26.492Z,101619.75
2022-09-21T01:17:04.988Z,101621.56
2022-09-21T01:19:57.015Z,101622.72
2022-09-21T01:22:49.671Z,101620.16
2022-09-21T01:25:37.413Z,101626.25
2022-09-21T01:28:20.829Z,101628.56
2022-09-21T01:30:50.584Z,101628.28
2022-09-21T01:33:24.698Z,101631.69
2022-09-21T01:35:57.562Z,101634.53
2022-09-21T01:38:33.698Z,101629.44
2022-09-21T01:41:04.613Z,101633.09
2022-09-21T01:43:38.936Z,101633.50
2022-09-21T01:46:10.780Z,101629.72
2022-09-21T01:48:41.945Z,101633.81
2022-09-21T01:51:12.227Z,101626.44
2022-09-21T01:53:51.616Z,101635.94
2022-09-21T01:56:23.949Z,101632.53
2022-09-21T01:59:01.143Z,101624.91
2022-09-21T02:01:31.227Z,101629.00
2022-09-21T02:04:03.894Z,101629.81
2022-09-21T02:06:31.626Z,101625.75
2022-09-21T02:08:58.152Z,101634.50
2022-09-21T02:11:24.661Z,101634.78
2022-09-21T02:13:55.034Z,101620.75
2022-09-21T02:16:40.074Z,101632.09
2022-09-21T02:19:22.529Z,101629.09
2022-09-21T02:22:12.601Z,101626.03
2022-09-21T02:24:43.159Z,101626.72
2022-09-21T02:27:34.448Z,101626.41
2022-09-21T02:30:09.097Z,101625.44
2022-09-21T02:32:52.617Z,101629.09
2022-09-21T02:35:38.654Z,101629.56
2022-09-21T02:38:22.740Z,101637.03
2022-09-21T02:40:56.672Z,101630.69
2022-09-21T02:43:30.676Z,101632.38
2022-09-21T02:46:06.313Z,101643.53
2022-09-21T02:48:38.203Z,101637.88
2022-09-21T02:51:11.196Z,101633.34
2022-09-21T02:53:39.746Z,101637.03
2022-09-21T02:56:09.111Z,101633.66
2022-09-21T02:58:40.018Z,101645.22
2022-09-21T03:01:10.210Z,101651.72
2022-09-21T03:03:37.031Z,101639.53
2022-09-21T03:06:03.750Z,101642.38
2022-09-21T03:08:30.454Z,101638.84
2022-09-21T03:10:57.734Z,101637.97
2022-09-21T03:13:25.002Z,101645.31
2022-09-21T03:15:59.855Z,101644.34
2022-09-21T03:18:26.820Z,101646.31
2022-09-21T03:20:53.348Z,101645.06
2022-09-21T03:23:19.859Z,101653.94
2022-09-21T03:25:47.217Z,101650.00
2022-09-21T03:28:14.725Z,101650.97
2022-09-21T03:30:42.129Z,101658.03
2022-09-21T03:33:08.669Z,101660.88
2022-09-21T03:35:35.268Z,101661.53
2022-09-21T03:38:02.264Z,101663.38
2022-09-21T03:40:29.168Z,101666.81
2022-09-21T03:42:56.021Z,101666.78
2022-09-21T03:45:22.885Z,101672.56
2022-09-21T03:47:49.398Z,101672.84
2022-09-21T03:50:16.114Z,101668.44
2022-09-21T03:52:42.663Z,101668.44
2022-09-21T03:55:09.506Z,101674.44
2022-09-21T03:57:36.553Z,101677.31
2022-09-21T04:00:07.171Z,101671.72
2022-09-21T04:02:34.419Z,101673.69
2022-09-21T04:05:01.020Z,101676.84
2022-09-21T04:07:33.878Z,101676.69
2022-09-21T04:10:01.198Z,101674.16
2022-09-21T04:12:28.102Z,101684.84
2022-09-21T04:14:54.651Z,101675.28
2022-09-21T04:17:21.490Z,101671.59
2022-09-21T04:19:48.583Z,101672.31
2022-09-21T04:22:15.448Z,101670.06
2022-09-21T04:24:41.948Z,101664.53
2022-09-21T04:27:09.364Z,101669.91
2022-09-21T04:29:36.644Z,101665.94
2022-09-21T04:32:04.869Z,101671.94
2022-09-21T04:34:31.640Z,101667.28
2022-09-21T04:36:59.000Z,101676.19
2022-09-21T04:39:26.219Z,101674.78
2022-09-21T04:41:52.983Z,101677.75
2022-09-21T04:44:19.502Z,101673.91
2022-09-21T04:46:46.143Z,101661.94
2022-09-21T04:49:12.895Z,101670.97
2022-09-21T04:51:39.413Z,101678.88
2022-09-21T04:54:06.631Z,101676.19
2022-09-21T04:56:33.442Z,101673.22
2022-09-21T04:58:59.935Z,101680.00
2022-09-21T05:01:26.617Z,101681.31
2022-09-21T05:03:53.167Z,101680.53
2022-09-21T05:06:19.735Z,101677.47
2022-09-21T05:09:04.953Z,101686.19
2022-09-21T05:11:31.622Z,101693.50
2022-09-21T05:13:58.174Z,101692.44
2022-09-21T05:16:24.743Z,101696.25
2022-09-21T05:18:54.857Z,101696.53
2022-09-21T05:21:21.921Z,101696.16
2022-09-21T05:23:48.519Z,101698.00
2022-09-21T05:26:15.413Z,101700.06
2022-09-21T05:28:42.930Z,101696.53
2022-09-21T05:31:18.718Z,101702.13
2022-09-21T05:33:52.861Z,101701.53
2022-09-21T05:36:48.437Z,101696.94
2022-09-21T05:39:15.498Z,101705.34
2022-09-21T05:41:42.555Z,101703.69
2022-09-21T05:44:13.847Z,101712.03
2022-09-21T05:46:56.050Z,101705.78
2022-09-21T05:49:35.630Z,101719.75
2022-09-21T05:52:34.667Z,101737.38
2022-09-21T05:55:19.511Z,101740.56
2022-09-21T05:57:54.159Z,101740.88
2022-09-21T06:00:22.809Z,101743.78
2022-09-21T06:03:02.780Z,101736.53
2022-09-21T06:05:29.296Z,101748.25
2022-09-21T06:07:55.856Z,101746.72
2022-09-21T06:10:24.169Z,101749.44
2022-09-21T06:12:51.315Z,101752.72
2022-09-21T06:15:18.118Z,101752.19
2022-09-21T06:17:44.614Z,101758.31
2022-09-21T06:20:11.202Z,101765.25
2022-09-21T06:22:37.746Z,101773.81
2022-09-21T06:25:04.554Z,101769.53
2022-09-21T06:27:31.042Z,101769.69
2022-09-21T06:29:57.663Z,101768.09
2022-09-21T06:32:24.229Z,101768.56
2022-09-21T06:34:51.034Z,101765.44
2022-09-21T06:37:17.609Z,101767.19
2022-09-21T06:39:44.212Z,101765.97
2022-09-21T06:42:10.719Z,101769.03
2022-09-21T06:44:37.232Z,101773.72
2022-09-21T06:47:03.909Z,101774.03
2022-09-21T06:49:30.412Z,101764.69
2022-09-21T06:51:56.927Z,101772.84
2022-09-21T06:54:24.541Z,101776.13
2022-09-21T06:56:51.052Z,101775.84
2022-09-21T06:59:17.729Z,101768.41
2022-09-21T07:01:44.358Z,101765.66
2022-09-21T07:04:11.426Z,101771.53
2022-09-21T07:06:37.931Z,101777.16
2022-09-21T07:11:51.262Z,101771.53
2022-09-21T07:14:18.553Z,101777.53
2022-09-21T07:16:46.206Z,101778.94
2022-09-21T07:19:12.806Z,101775.09
2022-09-21T07:21:39.930Z,101787.69
2022-09-21T07:24:11.730Z,101788.22
2022-09-21T07:26:40.019Z,101783.75
2022-09-21T07:29:06.874Z,101785.84
2022-09-21T07:31:33.553Z,101787.56
2022-09-21T07:34:00.921Z,101791.38
2022-09-21T07:36:27.446Z,101788.41
2022-09-21T07:38:54.155Z,101788.66
2022-09-21T07:41:20.950Z,101793.44
2022-09-21T07:43:47.506Z,101801.94
2022-09-21T07:46:14.975Z,101797.06
2022-09-21T07:48:42.076Z,101799.19
2022-09-21T07:51:11.290Z,101796.50
2022-09-21T07:53:39.570Z,101804.59
2022-09-21T07:56:12.463Z,101804.69
2022-09-21T07:58:58.539Z,101802.53
2022-09-21T08:01:26.512Z,101803.47
2022-09-21T08:03:55.231Z,101807.25
2022-09-21T08:06:23.906Z,101811.75
2022-09-21T08:08:56.582Z,101815.72
2022-09-21T08:11:25.875Z,101816.41
2022-09-21T08:13:54.348Z,101813.13
2022-09-21T08:16:21.325Z,101814.25
2022-09-21T08:18:47.852Z,101811.91
2022-09-21T08:21:14.411Z,101823.03
2022-09-21T08:23:42.945Z,101825.63
2022-09-21T08:26:20.515Z,101821.09
2022-09-21T08:28:49.196Z,101821.91
2022-09-21T08:31:19.309Z,101830.63
2022-09-21T08:33:46.955Z,101833.59
2022-09-21T08:36:13.788Z,101823.44
2022-09-21T08:38:40.345Z,101833.03
2022-09-21T08:41:23.051Z,101828.81
2022-09-21T08:43:54.490Z,101826.81
2022-09-21T08:46:25.505Z,101824.84
2022-09-21T08:49:01.822Z,101821.81
2022-09-21T08:51:36.056Z,101824.97
2022-09-21T08:54:23.226Z,101817.66
2022-09-21T08:57:04.529Z,101817.25
2022-09-21T08:59:31.793Z,101816.88
2022-09-21T09:02:30.944Z,101818.38
2022-09-21T09:05:12.574Z,101823.38
2022-09-21T09:08:02.947Z,101816.97
2022-09-21T09:10:53.759Z,101826.16
2022-09-21T09:13:32.458Z,101817.03
2022-09-21T09:16:31.266Z,101821.19
2022-09-21T09:19:04.337Z,101813.78
2022-09-21T09:21:43.444Z,101818.38
2022-09-21T09:24:43.318Z,101820.44
2022-09-21T09:27:18.932Z,101812.28
2022-09-21T09:30:16.978Z,101810.47
2022-09-21T09:33:02.383Z,101819.53
2022-09-21T09:35:34.020Z,101818.16
2022-09-21T09:38:19.200Z,101812.53
2022-09-21T09:41:24.573Z,101815.19
2022-09-21T09:44:20.755Z,101814.31
2022-09-21T09:47:21.170Z,101805.97
2022-09-21T09:50:23.678Z,101799.03
2022-09-21T09:52:54.840Z,101811.59
2022-09-21T09:55:25.940Z,101804.72
2022-09-21T09:57:54.931Z,101797.03
2022-09-21T10:00:22.319Z,101791.22
2022-09-21T10:02:52.242Z,101807.19
2022-09-21T10:05:38.856Z,101795.81
2022-09-21T10:08:05.380Z,101790.03
2022-09-21T10:10:37.645Z,101792.66
2022-09-21T10:13:22.078Z,101793.03
2022-09-21T10:15:51.417Z,101786.84
2022-09-21T10:18:25.431Z,101785.88
2022-09-21T10:21:01.804Z,101788.34
2022-09-21T10:23:30.846Z,101783.09
2022-09-21T10:26:04.171Z,101783.84
2022-09-21T10:28:31.115Z,101786.69
2022-09-21T10:31:23.571Z,101774.22
2022-09-21T10:33:51.933Z,101778.03
2022-09-21T10:36:27.960Z,101773.03
2022-09-21T10:38:54.518Z,101768.56
2022-09-21T10:41:21.438Z,101768.91
2022-09-21T10:43:50.656Z,101769.84
2022-09-21T10:46:17.979Z,101765.50
2022-09-21T10:48:46.728Z,101767.28
2022-09-21T10:51:30.353Z,101768.59
2022-09-21T10:53:57.470Z,101761.56
2022-09-21T10:56:24.938Z,101752.31
2022-09-21T10:59:12.554Z,101763.69
2022-09-21T11:01:50.864Z,101748.94
2022-09-21T11:04:42.130Z,101753.81
2022-09-21T11:07:34.088Z,101760.06
2022-09-21T11:10:00.523Z,101749.38
2022-09-21T11:12:26.967Z,101751.38
2022-09-21T11:15:02.293Z,101743.34
2022-09-21T11:17:42.065Z,101746.22
2022-09-21T11:20:20.730Z,101745.75
2022-09-21T11:22:57.686Z,101750.19
2022-09-21T11:25:58.658Z,101753.63
2022-09-21T11:28:42.059Z,101749.16
2022-09-21T11:31:34.543Z,101746.66
2022-09-21T11:34:25.964Z,101747.53
2022-09-21T11:37:20.043Z,101752.06
2022-09-21T11:40:12.870Z,101753.53
2022-09-21T11:42:45.620Z,101746.47
2022-09-21T11:45:33.811Z,101757.72
2022-09-21T11:48:25.670Z,101747.63
2022-09-21T11:51:15.467Z,101749.22
2022-09-21T11:53:54.084Z,101747.41
2022-09-21T11:56:31.057Z,101748.75
2022-09-21T11:59:19.567Z,101738.22
2022-09-21T12:02:05.226Z,101741.31
2022-09-21T12:04:42.872Z,101729.63
2022-09-21T12:07:20.468Z,101728.38
2022-09-21T12:10:16.837Z,101726.69
2022-09-21T12:12:59.763Z,101721.19
2022-09-21T12:15:51.716Z,101721.72
2022-09-21T12:18:27.242Z,101724.06
2022-09-21T12:21:01.070Z,101720.97
2022-09-21T12:23:45.106Z,101720.13
2022-09-21T12:26:23.039Z,101728.03
2022-09-21T12:28:54.976Z,101722.81
2022-09-21T12:31:43.824Z,101723.59
2022-09-21T12:34:18.782Z,101715.31
2022-09-21T12:37:04.368Z,101717.97
2022-09-21T12:39:51.443Z,101706.66
2022-09-21T12:42:40.629Z,101703.97
2022-09-21T12:45:22.819Z,101704.56
2022-09-21T12:47:58.024Z,101702.88
2022-09-21T12:50:48.466Z,101701.69
2022-09-21T12:53:20.977Z,101700.06
2022-09-21T12:56:09.948Z,101697.78
2022-09-21T12:59:12.159Z,101710.25
2022-09-21T13:01:57.086Z,101699.09
2022-09-21T13:04:46.131Z,101696.03
2022-09-21T13:07:51.569Z,101703.03
2022-09-21T13:10:39.851Z,101688.75
2022-09-21T13:13:18.783Z,101699.25
2022-09-21T13:15:48.304Z,101698.75
2022-09-21T13:18:31.401Z,101688.75
2022-09-21T13:21:22.088Z,101691.09
2022-09-21T13:23:56.762Z,101688.81
2022-09-21T13:26:33.063Z,101683.00
2022-09-21T13:29:21.670Z,101682.47
2022-09-21T13:32:00.735Z,101682.78
2022-09-21T13:34:32.882Z,101674.13
2022-09-21T13:37:11.732Z,101677.06
2022-09-21T13:39:50.175Z,101682.56
2022-09-21T13:42:34.794Z,101676.63
2022-09-21T13:45:24.176Z,101672.03
2022-09-21T13:47:54.599Z,101673.03
2022-09-21T13:50:32.391Z,101675.28
2022-09-21T13:53:09.761Z,101669.88
2022-09-21T13:55:40.842Z,101668.50
2022-09-21T13:58:24.745Z,101666.38
2022-09-21T14:01:00.103Z,101663.31
2022-09-21T14:03:40.770Z,101659.53
2022-09-21T14:06:15.799Z,101658.84
2022-09-21T14:08:51.598Z,101662.09
2022-09-21T14:11:59.079Z,101653.94
2022-09-21T14:14:33.165Z,101649.94
2022-09-21T14:17:01.375Z,101656.25
2022-09-21T14:19:31.987Z,101655.75
2022-09-21T14:22:04.689Z,101644.94
2022-09-21T14:24:49.812Z,101659.72
2022-09-21T14:27:26.812Z,101648.50
2022-09-21T14:29:59.347Z,101652.97
2022-09-21T14:32:35.390Z,101639.22
2022-09-21T14:35:11.258Z,101644.03
2022-09-21T14:37:43.076Z,101648.00
2022-09-21T14:40:31.427Z,101643.06
2022-09-21T14:43:01.998Z,101644.91
2022-09-21T14:46:03.151Z,101643.06
2022-09-21T14:49:01.979Z,101638.41
2022-09-21T14:52:23.509Z,101637.56
2022-09-21T14:55:11.793Z,101630.91
2022-09-21T14:58:15.027Z,101633.03
2022-09-21T15:00:44.366Z,101628.53
2022-09-21T15:03:32.761Z,101633.34
2022-09-21T15:06:34.116Z,101628.59
2022-09-21T15:09:41.589Z,101624.88
2022-09-21T15:12:17.009Z,101622.94
2022-09-21T15:15:15.339Z,101621.72
2022-09-21T15:17:59.183Z,101620.16
2022-09-21T15:20:28.455Z,101618.00
2022-09-21T15:22:57.044Z,101612.97
2022-09-21T15:25:26.711Z,101617.28
2022-09-21T15:27:54.839Z,101608.91
2022-09-21T15:30:24.687Z,101615.72
2022-09-21T15:32:55.166Z,101610.97
2022-09-21T15:35:27.897Z,101608.44
2022-09-21T15:37:56.427Z,101613.38
2022-09-21T15:40:30.936Z,101610.16
2022-09-21T15:43:19.531Z,101610.38
2022-09-21T15:46:03.786Z,101611.97
2022-09-21T15:48:34.184Z,101616.84
2022-09-21T15:51:13.004Z,101615.50
2022-09-21T15:53:45.489Z,101602.97
2022-09-21T15:56:22.110Z,101601.66
2022-09-21T15:58:53.204Z,101612.03
2022-09-21T16:01:23.287Z,101605.19
2022-09-21T16:04:03.072Z,101612.75
2022-09-21T16:06:41.603Z,101605.56
2022-09-21T16:09:31.511Z,101602.97
2022-09-21T16:11:58.044Z,101609.66
2022-09-21T16:14:43.479Z,101612.94
2022-09-21T16:17:11.398Z,101606.22
2022-09-21T16:19:42.935Z,101608.91
2022-09-21T16:22:14.299Z,101615.03
2022-09-21T16:24:50.508Z,101606.28
2022-09-21T16:27:19.468Z,101612.63
2022-09-21T16:29:48.451Z,101609.09
2022-09-21T16:32:18.162Z,101612.84
2022-09-21T16:34:46.902Z,101598.13
2022-09-21T16:37:25.664Z,101610.06
2022-09-21T16:39:54.214Z,101615.06
2022-09-21T16:42:22.732Z,101617.19
2022-09-21T16:44:50.426Z,101611.25
2022-09-21T16:47:25.589Z,101614.28
2022-09-21T16:50:02.511Z,101608.09
2022-09-21T16:52:30.518Z,101604.31
2022-09-21T16:54:58.626Z,101610.56
2022-09-21T16:57:26.035Z,101612.03
2022-09-21T16:59:53.348Z,101613.09
2022-09-21T17:02:19.951Z,101601.38
2022-09-21T17:04:48.329Z,101606.81
2022-09-21T17:07:16.679Z,101606.75
2022-09-21T17:09:48.035Z,101597.91
2022-09-21T17:12:17.677Z,101606.06
2022-09-21T17:14:46.949Z,101609.63
2022-09-21T17:17:19.170Z,101603.94
2022-09-21T17:19:49.837Z,101603.75
2022-09-21T17:22:17.232Z,101605.28
2022-09-21T17:24:52.121Z,101606.78
2022-09-21T17:27:25.251Z,101604.91
2022-09-21T17:29:54.170Z,101594.75
2022-09-21T17:32:23.001Z,101598.88
2022-09-21T17:35:01.550Z,101601.50
2022-09-21T17:37:29.392Z,101605.09
2022-09-21T17:39:56.123Z,101604.19
2022-09-21T17:42:24.926Z,101605.31
2022-09-21T17:45:01.556Z,101604.78
2022-09-21T17:47:31.263Z,101604.44
2022-09-21T17:50:08.251Z,101598.59
2022-09-21T17:52:54.213Z,101595.63
2022-09-21T17:55:21.118Z,101596.91
2022-09-21T17:58:05.768Z,101598.69
2022-09-21T18:00:44.079Z,101603.09
2022-09-21T18:03:32.149Z,101606.44
2022-09-21T18:06:01.770Z,101599.09
2022-09-21T18:08:29.963Z,101606.19
2022-09-21T18:10:59.420Z,101602.03
2022-09-21T18:13:34.757Z,101610.19
2022-09-21T18:16:10.503Z,101604.38
2022-09-21T18:18:46.770Z,101613.31
2022-09-21T18:21:22.656Z,101612.59
2022-09-21T18:24:13.523Z,101601.44
2022-09-21T18:26:41.529Z,101602.03
2022-09-21T18:29:40.644Z,101604.84
2022-09-21T18:32:28.636Z,101612.91
2022-09-21T18:35:23.600Z,101601.34
2022-09-21T18:38:04.419Z,101601.72
2022-09-21T18:40:52.785Z,101605.56
2022-09-21T18:43:43.617Z,101600.38
2022-09-21T18:46:29.126Z,101606.75
2022-09-21T18:48:59.067Z,101605.13
2022-09-21T18:51:45.490Z,101606.50
2022-09-21T18:54:19.983Z,101612.28
2022-09-21T18:56:47.503Z,101604.59
2022-09-21T18:59:15.595Z,101606.19
2022-09-21T19:01:44.187Z,101604.34
2022-09-21T19:04:13.834Z,101607.66
2022-09-21T19:07:08.514Z,101617.19
2022-09-21T19:09:57.766Z,101611.78
2022-09-21T19:12:49.555Z,101615.53
2022-09-21T19:15:59.638Z,101613.28
2022-09-21T19:18:46.804Z,101611.66
2022-09-21T19:21:45.814Z,101616.91
2022-09-21T19:24:26.773Z,101611.47
2022-09-21T19:27:25.021Z,101608.59
2022-09-21T19:30:05.911Z,101616.72
2022-09-21T19:32:47.493Z,101608.78
2022-09-21T19:35:22.008Z,101613.50
2022-09-21T19:37:50.208Z,101617.78
2022-09-21T19:40:19.048Z,101613.34
2022-09-21T19:43:16.483Z,101611.84
2022-09-21T19:46:05.177Z,101613.88
2022-09-21T19:48:45.048Z,101609.47
2022-09-21T19:51:27.665Z,101602.00
2022-09-21T19:54:15.194Z,101607.44
2022-09-21T19:57:05.774Z,101611.16
2022-09-21T19:59:44.702Z,101609.28
2022-09-21T20:02:19.748Z,101609.94
2022-09-21T20:04:56.819Z,101605.06
2022-09-21T20:07:28.677Z,101613.72
2022-09-21T20:10:08.347Z,101614.91
2022-09-21T20:12:43.122Z,101614.75
2022-09-21T20:15:21.652Z,101619.44
2022-09-21T20:17:57.654Z,101612.47
2022-09-21T20:20:26.674Z,101613.56
2022-09-21T20:22:54.395Z,101612.91
2022-09-21T20:25:23.936Z,101611.34
2022-09-21T20:27:53.309Z,101621.59
2022-09-21T20:30:22.633Z,101620.22
2022-09-21T20:32:53.131Z,101616.34
2022-09-21T20:35:25.312Z,101621.53
2022-09-21T20:37:52.469Z,101617.47
2022-09-21T20:40:20.404Z,101614.72
2022-09-21T20:42:47.027Z,101619.44
2022-09-21T20:45:13.961Z,101615.53
2022-09-21T20:47:42.106Z,101626.94
2022-09-21T20:50:13.430Z,101624.81
2022-09-21T20:52:42.775Z,101619.03
2022-09-21T20:55:12.535Z,101626.00
2022-09-21T20:57:40.410Z,101632.84
2022-09-21T21:00:09.729Z,101634.19
2022-09-21T21:02:37.290Z,101625.81
2022-09-21T21:05:05.479Z,101627.22
2022-09-21T21:07:32.415Z,101626.88
2022-09-21T21:09:58.894Z,101620.50
2022-09-21T21:12:26.208Z,101622.03
2022-09-21T21:14:52.966Z,101621.06
2022-09-21T21:17:19.488Z,101616.81
2022-09-21T21:19:46.037Z,101621.06
2022-09-21T21:22:13.791Z,101626.09
2022-09-21T21:24:40.802Z,101619.03
2022-09-21T21:27:16.159Z,101625.19
2022-09-21T21:29:49.919Z,101629.31
2022-09-21T21:32:19.497Z,101625.75
2022-09-21T21:34:46.395Z,101634.44
2022-09-21T21:40:03.291Z,101625.78
2022-09-21T21:42:29.950Z,101629.41
2022-09-21T21:44:56.940Z,101628.28
2022-09-21T21:47:40.524Z,101628.16
2022-09-21T21:50:10.795Z,101630.66
2022-09-21T21:52:37.969Z,101629.34
2022-09-21T21:55:05.509Z,101629.44
2022-09-21T21:57:33.121Z,101627.75
2022-09-21T21:59:59.908Z,101623.94
2022-09-21T22:02:26.945Z,101625.56
2022-09-21T22:04:53.741Z,101629.69
2022-09-21T22:07:20.227Z,101628.16
2022-09-21T22:09:46.726Z,101630.91
2022-09-21T22:12:13.528Z,101629.53
2022-09-21T22:14:40.168Z,101627.38
2022-09-21T22:17:06.690Z,101624.81
2022-09-21T22:19:55.724Z,101625.22
2022-09-21T22:22:22.278Z,101627.19
2022-09-21T22:24:49.044Z,101629.03
2022-09-21T22:27:16.402Z,101626.72
2022-09-21T22:29:43.139Z,101624.25
2022-09-21T22:32:09.626Z,101623.72
2022-09-21T22:34:37.140Z,101623.50
2022-09-21T22:37:04.990Z,101626.66
2022-09-21T22:39:32.174Z,101633.88
2022-09-21T22:42:00.369Z,101628.34
2022-09-21T22:44:26.854Z,101627.25
2022-09-21T22:46:53.611Z,101631.97
2022-09-21T22:49:20.155Z,101630.53
2022-09-21T22:51:46.671Z,101626.88
2022-09-21T22:54:13.178Z,101625.00
2022-09-21T22:56:39.862Z,101629.84
2022-09-21T22:59:06.405Z,101625.94
2022-09-21T23:01:38.638Z,101622.97
2022-09-21T23:04:08.204Z,101622.88
2022-09-21T23:06:38.105Z,101623.38
2022-09-21T23:09:08.167Z,101621.91
2022-09-21T23:11:38.525Z,101622.75
2022-09-21T23:14:05.843Z,101634.06
2022-09-21T23:16:33.278Z,101626.72
2022-09-21T23:19:00.090Z,101620.00
2022-09-21T23:21:28.709Z,101616.31
2022-09-21T23:24:01.774Z,101619.00
2022-09-21T23:26:30.500Z,101621.59
2022-09-21T23:29:02.215Z,101615.53
2022-09-21T23:31:31.338Z,101623.03
2022-09-21T23:34:12.427Z,101618.50
2022-09-21T23:36:40.302Z,101614.31
2022-09-21T23:39:09.507Z,101613.47
2022-09-21T23:41:36.841Z,101616.19
2022-09-21T23:44:04.519Z,101615.19
2022-09-21T23:46:33.573Z,101609.41
2022-09-21T23:49:00.961Z,101611.22
2022-09-21T23:51:29.802Z,101614.38
2022-09-21T23:53:57.459Z,101610.81
2022-09-21T23:56:24.603Z,101609.25
2022-09-21T23:58:51.986Z,101611.81
